sensor_id;sensor_type;location;lat;lon;timestamp;temperature;humidity
5775;DHT22;2913;51.120;6.772;2023-02-01T00:00:29;6.90;99.90
5775;DHT22;2913;51.120;6.772;2023-02-01T00:02:55;6.90;99.90
5775;DHT22;2913;51.120;6.772;2023-02-01T00:05:21;6.90;99.90
5775;DHT22;2913;51.120;6.772;2023-02-01T00:07:47;6.90;99.90
5775;DHT22;2913;51.120;6.772;2023-02-01T00:10:13;7.00;99.90
5775;DHT22;2913;51.120;6.772;2023-02-01T00:12:41;7.00;99.90
5775;DHT22;2913;51.120;6.772;2023-02-01T00:15:07;7.00;99.90
5775;DHT22;2913;51.120;6.772;2023-02-01T00:17:35;7.00;99.90
5775;DHT22;2913;51.120;6.772;2023-02-01T00:20:01;7.00;99.90
5775;DHT22;2913;51.120;6.772;2023-02-01T00:22:29;7.00;99.90
5775;DHT22;2913;51.120;6.772;2023-02-01T00:24:57;7.00;99.90
5775;DHT22;2913;51.120;6.772;2023-02-01T00:27:23;7.00;99.90
5775;DHT22;2913;51.120;6.772;2023-02-01T00:29:48;7.00;99.90
5775;DHT22;2913;51.120;6.772;2023-02-01T00:32:14;7.00;99.90
5775;DHT22;2913;51.120;6.772;2023-02-01T00:34:42;7.00;99.90
5775;DHT22;2913;51.120;6.772;2023-02-01T00:37:07;7.00;99.90
5775;DHT22;2913;51.120;6.772;2023-02-01T00:39:33;7.00;99.90
5775;DHT22;2913;51.120;6.772;2023-02-01T00:42:00;6.90;99.90
5775;DHT22;2913;51.120;6.772;2023-02-01T00:44:26;7.00;99.90
5775;DHT22;2913;51.120;6.772;2023-02-01T00:46:58;6.90;99.90
5775;DHT22;2913;51.120;6.772;2023-02-01T00:49:24;6.90;99.90
5775;DHT22;2913;51.120;6.772;2023-02-01T00:51:50;6.90;99.90
5775;DHT22;2913;51.120;6.772;2023-02-01T00:54:18;6.90;99.90
5775;DHT22;2913;51.120;6.772;2023-02-01T00:56:43;6.80;99.90
5775;DHT22;2913;51.120;6.772;2023-02-01T00:59:14;6.80;99.90
5775;DHT22;2913;51.120;6.772;2023-02-01T01:01:40;6.70;99.90
5775;DHT22;2913;51.120;6.772;2023-02-01T01:04:06;6.70;99.90
5775;DHT22;2913;51.120;6.772;2023-02-01T01:06:32;6.70;99.90
5775;DHT22;2913;51.120;6.772;2023-02-01T01:09:01;6.70;99.90
5775;DHT22;2913;51.120;6.772;2023-02-01T01:11:31;6.60;99.90
5775;DHT22;2913;51.120;6.772;2023-02-01T01:13:58;6.60;99.90
5775;DHT22;2913;51.120;6.772;2023-02-01T01:16:28;6.60;99.90
5775;DHT22;2913;51.120;6.772;2023-02-01T01:18:54;6.60;99.90
5775;DHT22;2913;51.120;6.772;2023-02-01T01:21:23;6.50;99.90
5775;DHT22;2913;51.120;6.772;2023-02-01T01:23:51;6.50;99.90
5775;DHT22;2913;51.120;6.772;2023-02-01T01:26:22;6.50;99.90
5775;DHT22;2913;51.120;6.772;2023-02-01T01:28:48;6.50;99.90
5775;DHT22;2913;51.120;6.772;2023-02-01T01:31:16;6.60;99.90
5775;DHT22;2913;51.120;6.772;2023-02-01T01:33:51;6.50;99.90
5775;DHT22;2913;51.120;6.772;2023-02-01T01:36:21;6.50;99.90
5775;DHT22;2913;51.120;6.772;2023-02-01T01:38:50;6.50;99.90
5775;DHT22;2913;51.120;6.772;2023-02-01T01:41:21;6.50;99.90
5775;DHT22;2913;51.120;6.772;2023-02-01T01:46:29;6.50;99.90
5775;DHT22;2913;51.120;6.772;2023-02-01T01:51:29;6.40;99.90
5775;DHT22;2913;51.120;6.772;2023-02-01T01:56:46;6.40;99.90
5775;DHT22;2913;51.120;6.772;2023-02-01T01:59:15;6.40;99.90
5775;DHT22;2913;51.120;6.772;2023-02-01T02:01:41;6.40;99.90
5775;DHT22;2913;51.120;6.772;2023-02-01T02:04:07;6.40;99.90
5775;DHT22;2913;51.120;6.772;2023-02-01T02:06:50;6.30;99.90
5775;DHT22;2913;51.120;6.772;2023-02-01T02:09:19;6.30;99.90
5775;DHT22;2913;51.120;6.772;2023-02-01T02:11:44;6.30;99.90
5775;DHT22;2913;51.120;6.772;2023-02-01T02:14:14;6.30;99.90
5775;DHT22;2913;51.120;6.772;2023-02-01T02:25:29;6.30;99.90
5775;DHT22;2913;51.120;6.772;2023-02-01T02:33:52;6.20;99.90
5775;DHT22;2913;51.120;6.772;2023-02-01T02:36:37;6.20;99.90
5775;DHT22;2913;51.120;6.772;2023-02-01T02:39:23;6.20;99.90
5775;DHT22;2913;51.120;6.772;2023-02-01T02:42:12;6.10;99.90
5775;DHT22;2913;51.120;6.772;2023-02-01T02:45:17;6.10;99.90
5775;DHT22;2913;51.120;6.772;2023-02-01T02:53:30;6.10;99.90
5775;DHT22;2913;51.120;6.772;2023-02-01T02:56:18;6.10;99.90
5775;DHT22;2913;51.120;6.772;2023-02-01T02:59:07;6.10;99.90
5775;DHT22;2913;51.120;6.772;2023-02-01T03:01:52;6.10;99.90
5775;DHT22;2913;51.120;6.772;2023-02-01T03:04:36;6.10;99.90
5775;DHT22;2913;51.120;6.772;2023-02-01T03:13:04;6.00;99.90
5775;DHT22;2913;51.120;6.772;2023-02-01T03:15:32;6.00;99.90
5775;DHT22;2913;51.120;6.772;2023-02-01T03:18:01;6.00;99.90
5775;DHT22;2913;51.120;6.772;2023-02-01T03:20:29;6.00;99.90
5775;DHT22;2913;51.120;6.772;2023-02-01T03:22:55;6.00;99.90
5775;DHT22;2913;51.120;6.772;2023-02-01T03:25:27;6.00;99.90
5775;DHT22;2913;51.120;6.772;2023-02-01T03:28:00;5.90;99.90
5775;DHT22;2913;51.120;6.772;2023-02-01T03:30:33;6.00;99.90
5775;DHT22;2913;51.120;6.772;2023-02-01T03:33:05;6.00;99.90
5775;DHT22;2913;51.120;6.772;2023-02-01T03:35:45;6.00;99.90
5775;DHT22;2913;51.120;6.772;2023-02-01T03:46:50;6.10;99.90
5775;DHT22;2913;51.120;6.772;2023-02-01T03:51:54;6.10;99.90
5775;DHT22;2913;51.120;6.772;2023-02-01T03:54:21;6.20;99.90
5775;DHT22;2913;51.120;6.772;2023-02-01T03:56:48;6.20;99.90
5775;DHT22;2913;51.120;6.772;2023-02-01T03:59:14;6.20;99.90
5775;DHT22;2913;51.120;6.772;2023-02-01T04:01:42;6.20;99.90
5775;DHT22;2913;51.120;6.772;2023-02-01T04:04:11;6.30;99.90
5775;DHT22;2913;51.120;6.772;2023-02-01T04:06:50;6.30;99.90
5775;DHT22;2913;51.120;6.772;2023-02-01T04:09:19;6.30;99.90
5775;DHT22;2913;51.120;6.772;2023-02-01T04:11:45;6.40;99.90
5775;DHT22;2913;51.120;6.772;2023-02-01T04:14:10;6.30;99.90
5775;DHT22;2913;51.120;6.772;2023-02-01T04:16:36;6.40;99.90
5775;DHT22;2913;51.120;6.772;2023-02-01T04:19:01;6.40;99.90
5775;DHT22;2913;51.120;6.772;2023-02-01T04:21:30;6.40;99.90
5775;DHT22;2913;51.120;6.772;2023-02-01T04:23:55;6.40;99.90
5775;DHT22;2913;51.120;6.772;2023-02-01T04:26:21;6.40;99.90
5775;DHT22;2913;51.120;6.772;2023-02-01T04:28:47;6.40;99.90
5775;DHT22;2913;51.120;6.772;2023-02-01T04:31:17;6.40;99.90
5775;DHT22;2913;51.120;6.772;2023-02-01T04:33:49;6.30;99.90
5775;DHT22;2913;51.120;6.772;2023-02-01T04:36:15;6.30;99.90
5775;DHT22;2913;51.120;6.772;2023-02-01T04:38:43;6.20;99.90
5775;DHT22;2913;51.120;6.772;2023-02-01T04:41:08;6.20;99.90
5775;DHT22;2913;51.120;6.772;2023-02-01T04:43:36;6.10;99.90
5775;DHT22;2913;51.120;6.772;2023-02-01T04:46:07;6.10;99.90
5775;DHT22;2913;51.120;6.772;2023-02-01T04:48:32;6.10;99.90
5775;DHT22;2913;51.120;6.772;2023-02-01T04:50:58;6.10;99.90
5775;DHT22;2913;51.120;6.772;2023-02-01T04:53:24;6.00;99.90
5775;DHT22;2913;51.120;6.772;2023-02-01T04:55:51;6.00;99.90
5775;DHT22;2913;51.120;6.772;2023-02-01T04:58:17;6.00;99.90
5775;DHT22;2913;51.120;6.772;2023-02-01T05:00:43;6.00;99.90
5775;DHT22;2913;51.120;6.772;2023-02-01T05:03:10;6.00;99.90
5775;DHT22;2913;51.120;6.772;2023-02-01T05:05:36;5.90;99.90
5775;DHT22;2913;51.120;6.772;2023-02-01T05:08:04;5.90;99.90
5775;DHT22;2913;51.120;6.772;2023-02-01T05:10:30;5.90;99.90
5775;DHT22;2913;51.120;6.772;2023-02-01T05:12:55;5.90;99.90
5775;DHT22;2913;51.120;6.772;2023-02-01T05:15:39;5.80;99.90
5775;DHT22;2913;51.120;6.772;2023-02-01T05:18:05;5.80;99.90
5775;DHT22;2913;51.120;6.772;2023-02-01T05:20:31;5.80;99.90
5775;DHT22;2913;51.120;6.772;2023-02-01T05:22:56;5.80;99.90
5775;DHT22;2913;51.120;6.772;2023-02-01T05:25:22;5.80;99.90
5775;DHT22;2913;51.120;6.772;2023-02-01T05:27:50;5.80;99.90
5775;DHT22;2913;51.120;6.772;2023-02-01T05:30:16;5.80;99.90
5775;DHT22;2913;51.120;6.772;2023-02-01T05:32:41;5.80;99.90
5775;DHT22;2913;51.120;6.772;2023-02-01T05:35:07;5.70;99.90
5775;DHT22;2913;51.120;6.772;2023-02-01T05:37:33;5.70;99.90
5775;DHT22;2913;51.120;6.772;2023-02-01T05:40:01;5.70;99.90
5775;DHT22;2913;51.120;6.772;2023-02-01T05:42:26;5.70;99.90
5775;DHT22;2913;51.120;6.772;2023-02-01T05:44:54;5.70;99.90
5775;DHT22;2913;51.120;6.772;2023-02-01T05:47:20;5.70;99.90
5775;DHT22;2913;51.120;6.772;2023-02-01T05:49:46;5.70;99.90
5775;DHT22;2913;51.120;6.772;2023-02-01T05:52:11;5.70;99.90
5775;DHT22;2913;51.120;6.772;2023-02-01T05:54:37;5.70;99.90
5775;DHT22;2913;51.120;6.772;2023-02-01T05:57:03;5.70;99.90
5775;DHT22;2913;51.120;6.772;2023-02-01T05:59:30;5.60;99.90
5775;DHT22;2913;51.120;6.772;2023-02-01T06:01:56;5.60;99.90
5775;DHT22;2913;51.120;6.772;2023-02-01T06:04:22;5.70;99.90
5775;DHT22;2913;51.120;6.772;2023-02-01T06:06:47;5.70;99.90
5775;DHT22;2913;51.120;6.772;2023-02-01T06:09:15;5.60;99.90
5775;DHT22;2913;51.120;6.772;2023-02-01T06:11:41;5.60;99.90
5775;DHT22;2913;51.120;6.772;2023-02-01T06:14:09;5.60;99.90
5775;DHT22;2913;51.120;6.772;2023-02-01T06:16:34;5.60;99.90
5775;DHT22;2913;51.120;6.772;2023-02-01T06:19:02;5.60;99.90
5775;DHT22;2913;51.120;6.772;2023-02-01T06:21:28;5.60;99.90
5775;DHT22;2913;51.120;6.772;2023-02-01T06:23:56;5.60;99.90
5775;DHT22;2913;51.120;6.772;2023-02-01T06:26:25;5.60;99.90
5775;DHT22;2913;51.120;6.772;2023-02-01T06:28:51;5.60;99.90
5775;DHT22;2913;51.120;6.772;2023-02-01T06:31:16;5.70;99.90
5775;DHT22;2913;51.120;6.772;2023-02-01T06:33:46;5.70;99.90
5775;DHT22;2913;51.120;6.772;2023-02-01T06:36:13;5.70;99.90
5775;DHT22;2913;51.120;6.772;2023-02-01T06:38:38;5.80;99.90
5775;DHT22;2913;51.120;6.772;2023-02-01T06:41:04;5.80;99.90
5775;DHT22;2913;51.120;6.772;2023-02-01T06:43:31;5.80;99.90
5775;DHT22;2913;51.120;6.772;2023-02-01T06:46:06;5.80;99.90
5775;DHT22;2913;51.120;6.772;2023-02-01T06:48:33;5.80;99.90
5775;DHT22;2913;51.120;6.772;2023-02-01T06:50:59;5.90;99.90
5775;DHT22;2913;51.120;6.772;2023-02-01T06:53:25;5.80;99.90
5775;DHT22;2913;51.120;6.772;2023-02-01T06:56:01;5.90;99.90
5775;DHT22;2913;51.120;6.772;2023-02-01T06:58:31;5.90;99.90
5775;DHT22;2913;51.120;6.772;2023-02-01T07:00:58;6.00;99.90
5775;DHT22;2913;51.120;6.772;2023-02-01T07:03:26;6.00;99.90
5775;DHT22;2913;51.120;6.772;2023-02-01T07:05:55;6.00;99.90
5775;DHT22;2913;51.120;6.772;2023-02-01T07:08:25;6.00;99.90
5775;DHT22;2913;51.120;6.772;2023-02-01T07:10:56;6.00;99.90
5775;DHT22;2913;51.120;6.772;2023-02-01T07:13:22;6.00;99.90
5775;DHT22;2913;51.120;6.772;2023-02-01T07:15:48;6.00;99.90
5775;DHT22;2913;51.120;6.772;2023-02-01T07:18:15;6.10;99.90
5775;DHT22;2913;51.120;6.772;2023-02-01T07:20:41;6.00;99.90
5775;DHT22;2913;51.120;6.772;2023-02-01T07:23:08;6.00;99.90
5775;DHT22;2913;51.120;6.772;2023-02-01T07:25:37;6.00;99.90
5775;DHT22;2913;51.120;6.772;2023-02-01T07:28:05;6.10;99.90
5775;DHT22;2913;51.120;6.772;2023-02-01T07:30:33;6.10;99.90
5775;DHT22;2913;51.120;6.772;2023-02-01T07:32:59;6.10;99.90
5775;DHT22;2913;51.120;6.772;2023-02-01T07:35:27;6.10;99.90
5775;DHT22;2913;51.120;6.772;2023-02-01T07:37:53;6.00;99.90
5775;DHT22;2913;51.120;6.772;2023-02-01T07:40:18;6.10;99.90
5775;DHT22;2913;51.120;6.772;2023-02-01T07:42:50;6.10;99.90
5775;DHT22;2913;51.120;6.772;2023-02-01T07:45:18;6.10;99.90
5775;DHT22;2913;51.120;6.772;2023-02-01T07:47:47;6.10;99.90
5775;DHT22;2913;51.120;6.772;2023-02-01T07:50:15;6.10;99.90
5775;DHT22;2913;51.120;6.772;2023-02-01T07:52:41;6.10;99.90
5775;DHT22;2913;51.120;6.772;2023-02-01T07:55:07;6.10;99.90
5775;DHT22;2913;51.120;6.772;2023-02-01T07:57:33;6.20;99.90
5775;DHT22;2913;51.120;6.772;2023-02-01T07:59:58;6.10;99.90
5775;DHT22;2913;51.120;6.772;2023-02-01T08:02:43;6.10;99.90
5775;DHT22;2913;51.120;6.772;2023-02-01T08:05:08;6.10;99.90
5775;DHT22;2913;51.120;6.772;2023-02-01T08:07:36;6.10;99.90
5775;DHT22;2913;51.120;6.772;2023-02-01T08:10:04;6.10;99.90
5775;DHT22;2913;51.120;6.772;2023-02-01T08:12:36;6.00;99.90
5775;DHT22;2913;51.120;6.772;2023-02-01T08:15:02;6.00;99.90
5775;DHT22;2913;51.120;6.772;2023-02-01T08:17:28;6.00;99.90
5775;DHT22;2913;51.120;6.772;2023-02-01T08:19:58;6.00;99.90
5775;DHT22;2913;51.120;6.772;2023-02-01T08:22:30;6.10;99.90
5775;DHT22;2913;51.120;6.772;2023-02-01T08:24:58;6.10;99.90
5775;DHT22;2913;51.120;6.772;2023-02-01T08:27:27;6.00;99.90
5775;DHT22;2913;51.120;6.772;2023-02-01T08:29:52;6.10;99.90
5775;DHT22;2913;51.120;6.772;2023-02-01T08:32:20;6.10;99.90
5775;DHT22;2913;51.120;6.772;2023-02-01T08:34:51;6.10;99.90
5775;DHT22;2913;51.120;6.772;2023-02-01T08:37:16;6.20;99.90
5775;DHT22;2913;51.120;6.772;2023-02-01T08:39:42;6.10;99.90
5775;DHT22;2913;51.120;6.772;2023-02-01T08:42:11;6.20;99.90
5775;DHT22;2913;51.120;6.772;2023-02-01T08:44:55;6.30;99.90
5775;DHT22;2913;51.120;6.772;2023-02-01T08:47:21;6.30;99.90
5775;DHT22;2913;51.120;6.772;2023-02-01T08:49:47;6.30;99.90
5775;DHT22;2913;51.120;6.772;2023-02-01T08:52:12;6.40;99.90
5775;DHT22;2913;51.120;6.772;2023-02-01T08:54:38;6.40;99.90
5775;DHT22;2913;51.120;6.772;2023-02-01T08:57:06;6.40;99.90
5775;DHT22;2913;51.120;6.772;2023-02-01T08:59:32;6.50;99.90
5775;DHT22;2913;51.120;6.772;2023-02-01T09:01:57;6.50;99.90
5775;DHT22;2913;51.120;6.772;2023-02-01T09:04:25;6.50;99.90
5775;DHT22;2913;51.120;6.772;2023-02-01T09:06:53;6.50;99.90
5775;DHT22;2913;51.120;6.772;2023-02-01T09:09:21;6.60;99.90
5775;DHT22;2913;51.120;6.772;2023-02-01T09:11:47;6.60;99.90
5775;DHT22;2913;51.120;6.772;2023-02-01T09:14:14;6.60;99.90
5775;DHT22;2913;51.120;6.772;2023-02-01T09:16:40;6.60;99.90
5775;DHT22;2913;51.120;6.772;2023-02-01T09:19:05;6.60;99.90
5775;DHT22;2913;51.120;6.772;2023-02-01T09:21:31;6.60;99.90
5775;DHT22;2913;51.120;6.772;2023-02-01T09:23:57;6.60;99.90
5775;DHT22;2913;51.120;6.772;2023-02-01T09:26:25;6.50;99.90
5775;DHT22;2913;51.120;6.772;2023-02-01T09:28:53;6.50;99.90
5775;DHT22;2913;51.120;6.772;2023-02-01T09:31:19;6.50;99.90
5775;DHT22;2913;51.120;6.772;2023-02-01T09:33:44;6.60;99.90
5775;DHT22;2913;51.120;6.772;2023-02-01T09:36:10;6.60;99.90
5775;DHT22;2913;51.120;6.772;2023-02-01T09:38:36;6.70;99.90
5775;DHT22;2913;51.120;6.772;2023-02-01T09:41:10;6.30;99.90
5775;DHT22;2913;51.120;6.772;2023-02-01T09:43:55;6.60;99.90
5775;DHT22;2913;51.120;6.772;2023-02-01T09:46:29;6.50;99.90
5775;DHT22;2913;51.120;6.772;2023-02-01T09:49:01;6.50;99.90
5775;DHT22;2913;51.120;6.772;2023-02-01T09:51:42;6.60;99.90
5775;DHT22;2913;51.120;6.772;2023-02-01T09:54:22;6.60;99.90
5775;DHT22;2913;51.120;6.772;2023-02-01T09:57:06;6.40;99.90
5775;DHT22;2913;51.120;6.772;2023-02-01T10:00:22;6.50;99.90
5775;DHT22;2913;51.120;6.772;2023-02-01T10:02:50;6.40;99.90
5775;DHT22;2913;51.120;6.772;2023-02-01T10:05:36;6.50;99.90
5775;DHT22;2913;51.120;6.772;2023-02-01T10:10:48;6.60;99.90
5775;DHT22;2913;51.120;6.772;2023-02-01T10:18:51;6.80;99.90
5775;DHT22;2913;51.120;6.772;2023-02-01T10:22:00;6.80;99.90
5775;DHT22;2913;51.120;6.772;2023-02-01T10:29:41;7.10;99.90
5775;DHT22;2913;51.120;6.772;2023-02-01T10:32:16;7.20;99.90
5775;DHT22;2913;51.120;6.772;2023-02-01T10:34:44;7.20;99.90
5775;DHT22;2913;51.120;6.772;2023-02-01T10:37:30;7.30;99.90
5775;DHT22;2913;51.120;6.772;2023-02-01T10:42:42;7.60;99.90
5775;DHT22;2913;51.120;6.772;2023-02-01T10:45:14;7.70;99.90
5775;DHT22;2913;51.120;6.772;2023-02-01T10:47:41;7.70;99.90
5775;DHT22;2913;51.120;6.772;2023-02-01T10:50:18;7.60;99.90
5775;DHT22;2913;51.120;6.772;2023-02-01T10:58:02;7.50;99.90
5775;DHT22;2913;51.120;6.772;2023-02-01T11:00:39;7.50;99.90
5775;DHT22;2913;51.120;6.772;2023-02-01T11:04:11;7.40;99.90
5775;DHT22;2913;51.120;6.772;2023-02-01T11:06:33;7.50;99.90
5775;DHT22;2913;51.120;6.772;2023-02-01T11:19:19;7.50;99.90
5775;DHT22;2913;51.120;6.772;2023-02-01T11:21:52;7.60;99.90
5775;DHT22;2913;51.120;6.772;2023-02-01T11:24:31;7.60;99.90
5775;DHT22;2913;51.120;6.772;2023-02-01T11:27:00;7.70;99.90
5775;DHT22;2913;51.120;6.772;2023-02-01T11:29:37;7.60;99.90
5775;DHT22;2913;51.120;6.772;2023-02-01T11:32:04;7.70;99.90
5775;DHT22;2913;51.120;6.772;2023-02-01T11:34:54;7.70;99.90
5775;DHT22;2913;51.120;6.772;2023-02-01T11:37:28;7.80;99.90
5775;DHT22;2913;51.120;6.772;2023-02-01T11:40:00;7.80;99.90
5775;DHT22;2913;51.120;6.772;2023-02-01T11:42:28;7.90;99.90
5775;DHT22;2913;51.120;6.772;2023-02-01T11:47:46;7.80;99.90
5775;DHT22;2913;51.120;6.772;2023-02-01T11:50:19;7.80;99.90
5775;DHT22;2913;51.120;6.772;2023-02-01T11:56:06;7.80;99.90
5775;DHT22;2913;51.120;6.772;2023-02-01T11:59:00;7.90;99.90
5775;DHT22;2913;51.120;6.772;2023-02-01T12:06:55;7.90;99.90
5775;DHT22;2913;51.120;6.772;2023-02-01T12:09:46;7.90;99.90
5775;DHT22;2913;51.120;6.772;2023-02-01T12:21:03;8.00;99.90
5775;DHT22;2913;51.120;6.772;2023-02-01T12:29:03;8.10;99.90
5775;DHT22;2913;51.120;6.772;2023-02-01T12:43:02;8.10;99.90
5775;DHT22;2913;51.120;6.772;2023-02-01T12:45:49;8.00;99.90
5775;DHT22;2913;51.120;6.772;2023-02-01T12:51:18;8.10;99.90
5775;DHT22;2913;51.120;6.772;2023-02-01T12:53:53;8.10;99.90
5775;DHT22;2913;51.120;6.772;2023-02-01T12:56:30;8.10;99.90
5775;DHT22;2913;51.120;6.772;2023-02-01T12:58:59;8.10;99.90
5775;DHT22;2913;51.120;6.772;2023-02-01T13:04:25;8.10;99.90
5775;DHT22;2913;51.120;6.772;2023-02-01T13:06:57;8.10;99.90
5775;DHT22;2913;51.120;6.772;2023-02-01T13:09:38;8.20;99.90
5775;DHT22;2913;51.120;6.772;2023-02-01T13:12:20;8.20;99.90
5775;DHT22;2913;51.120;6.772;2023-02-01T13:14:53;8.20;99.90
5775;DHT22;2913;51.120;6.772;2023-02-01T13:17:26;8.20;99.90
5775;DHT22;2913;51.120;6.772;2023-02-01T13:22:44;8.20;99.90
5775;DHT22;2913;51.120;6.772;2023-02-01T13:25:19;8.20;99.90
5775;DHT22;2913;51.120;6.772;2023-02-01T13:27:47;8.20;99.90
5775;DHT22;2913;51.120;6.772;2023-02-01T13:30:23;8.20;99.90
5775;DHT22;2913;51.120;6.772;2023-02-01T13:43:27;8.20;99.90
5775;DHT22;2913;51.120;6.772;2023-02-01T13:45:56;8.20;99.90
5775;DHT22;2913;51.120;6.772;2023-02-01T13:50:56;8.20;99.90
5775;DHT22;2913;51.120;6.772;2023-02-01T13:53:48;8.20;99.90
5775;DHT22;2913;51.120;6.772;2023-02-01T13:56:19;8.20;99.90
5775;DHT22;2913;51.120;6.772;2023-02-01T13:58:47;8.20;99.90
5775;DHT22;2913;51.120;6.772;2023-02-01T14:04:05;8.30;99.90
5775;DHT22;2913;51.120;6.772;2023-02-01T14:11:41;8.40;99.90
5775;DHT22;2913;51.120;6.772;2023-02-01T14:21:57;8.40;99.90
5775;DHT22;2913;51.120;6.772;2023-02-01T14:26:55;8.40;99.90
5775;DHT22;2913;51.120;6.772;2023-02-01T14:29:32;8.40;99.90
5775;DHT22;2913;51.120;6.772;2023-02-01T14:32:14;8.40;99.90
5775;DHT22;2913;51.120;6.772;2023-02-01T14:44:50;8.50;99.90
5775;DHT22;2913;51.120;6.772;2023-02-01T14:50:07;8.50;99.90
5775;DHT22;2913;51.120;6.772;2023-02-01T14:52:41;8.50;99.90
5775;DHT22;2913;51.120;6.772;2023-02-01T14:55:14;8.50;99.90
5775;DHT22;2913;51.120;6.772;2023-02-01T14:57:43;8.50;99.90
5775;DHT22;2913;51.120;6.772;2023-02-01T15:00:26;8.50;99.90
5775;DHT22;2913;51.120;6.772;2023-02-01T15:05:43;8.50;99.90
5775;DHT22;2913;51.120;6.772;2023-02-01T15:08:18;8.50;99.90
5775;DHT22;2913;51.120;6.772;2023-02-01T15:10:47;8.50;99.90
5775;DHT22;2913;51.120;6.772;2023-02-01T15:13:21;8.50;99.90
5775;DHT22;2913;51.120;6.772;2023-02-01T15:16:09;8.50;99.90
5775;DHT22;2913;51.120;6.772;2023-02-01T15:18:38;8.50;99.90
5775;DHT22;2913;51.120;6.772;2023-02-01T15:21:20;8.50;99.90
5775;DHT22;2913;51.120;6.772;2023-02-01T15:23:47;8.50;99.90
5775;DHT22;2913;51.120;6.772;2023-02-01T15:26:31;8.50;99.90
5775;DHT22;2913;51.120;6.772;2023-02-01T15:28:58;8.50;99.90
5775;DHT22;2913;51.120;6.772;2023-02-01T15:31:38;8.40;99.90
5775;DHT22;2913;51.120;6.772;2023-02-01T15:34:04;8.50;99.90
5775;DHT22;2913;51.120;6.772;2023-02-01T15:36:30;8.50;99.90
5775;DHT22;2913;51.120;6.772;2023-02-01T15:41:59;8.60;99.90
5775;DHT22;2913;51.120;6.772;2023-02-01T15:44:40;8.60;99.90
5775;DHT22;2913;51.120;6.772;2023-02-01T15:49:44;8.50;99.90
5775;DHT22;2913;51.120;6.772;2023-02-01T15:52:39;8.60;99.90
5775;DHT22;2913;51.120;6.772;2023-02-01T15:55:20;8.50;99.90
5775;DHT22;2913;51.120;6.772;2023-02-01T15:57:47;8.50;99.90
5775;DHT22;2913;51.120;6.772;2023-02-01T16:00:35;8.40;99.90
5775;DHT22;2913;51.120;6.772;2023-02-01T16:03:37;8.50;99.90
5775;DHT22;2913;51.120;6.772;2023-02-01T16:06:06;8.50;99.90
5775;DHT22;2913;51.120;6.772;2023-02-01T16:08:35;8.40;99.90
5775;DHT22;2913;51.120;6.772;2023-02-01T16:13:27;8.40;99.90
5775;DHT22;2913;51.120;6.772;2023-02-01T16:15:58;8.40;99.90
5775;DHT22;2913;51.120;6.772;2023-02-01T16:18:23;8.50;99.90
5775;DHT22;2913;51.120;6.772;2023-02-01T16:20:49;8.40;99.90
5775;DHT22;2913;51.120;6.772;2023-02-01T16:23:17;8.40;99.90
5775;DHT22;2913;51.120;6.772;2023-02-01T16:25:46;8.40;99.90
5775;DHT22;2913;51.120;6.772;2023-02-01T16:28:15;8.40;99.90
5775;DHT22;2913;51.120;6.772;2023-02-01T16:30:43;8.50;99.90
5775;DHT22;2913;51.120;6.772;2023-02-01T16:33:13;8.40;99.90
5775;DHT22;2913;51.120;6.772;2023-02-01T16:35:41;8.40;99.90
5775;DHT22;2913;51.120;6.772;2023-02-01T16:38:12;8.40;99.90
5775;DHT22;2913;51.120;6.772;2023-02-01T16:40:42;8.40;99.90
5775;DHT22;2913;51.120;6.772;2023-02-01T16:43:21;8.40;99.90
5775;DHT22;2913;51.120;6.772;2023-02-01T16:45:49;8.40;99.90
5775;DHT22;2913;51.120;6.772;2023-02-01T16:48:27;8.40;99.90
5775;DHT22;2913;51.120;6.772;2023-02-01T16:51:01;8.40;99.90
5775;DHT22;2913;51.120;6.772;2023-02-01T16:53:29;8.40;99.90
5775;DHT22;2913;51.120;6.772;2023-02-01T16:55:56;8.40;99.90
5775;DHT22;2913;51.120;6.772;2023-02-01T16:58:23;8.40;99.90
5775;DHT22;2913;51.120;6.772;2023-02-01T17:00:50;8.40;99.90
5775;DHT22;2913;51.120;6.772;2023-02-01T17:03:20;8.30;99.90
5775;DHT22;2913;51.120;6.772;2023-02-01T17:05:52;8.30;99.90
5775;DHT22;2913;51.120;6.772;2023-02-01T17:08:23;8.30;99.90
5775;DHT22;2913;51.120;6.772;2023-02-01T17:10:53;8.30;99.90
5775;DHT22;2913;51.120;6.772;2023-02-01T17:13:18;8.30;99.90
5775;DHT22;2913;51.120;6.772;2023-02-01T17:15:50;8.30;99.90
5775;DHT22;2913;51.120;6.772;2023-02-01T17:18:18;8.30;99.90
5775;DHT22;2913;51.120;6.772;2023-02-01T17:20:44;8.30;99.90
5775;DHT22;2913;51.120;6.772;2023-02-01T17:23:16;8.30;99.90
5775;DHT22;2913;51.120;6.772;2023-02-01T17:25:42;8.40;99.90
5775;DHT22;2913;51.120;6.772;2023-02-01T17:28:10;8.30;99.90
5775;DHT22;2913;51.120;6.772;2023-02-01T17:30:37;8.30;99.90
5775;DHT22;2913;51.120;6.772;2023-02-01T17:35:45;8.30;99.90
5775;DHT22;2913;51.120;6.772;2023-02-01T17:38:12;8.30;99.90
5775;DHT22;2913;51.120;6.772;2023-02-01T17:40:38;8.30;99.90
5775;DHT22;2913;51.120;6.772;2023-02-01T17:43:04;8.30;99.90
5775;DHT22;2913;51.120;6.772;2023-02-01T17:45:38;8.30;99.90
5775;DHT22;2913;51.120;6.772;2023-02-01T17:48:14;8.30;99.90
5775;DHT22;2913;51.120;6.772;2023-02-01T17:50:42;8.30;99.90
5775;DHT22;2913;51.120;6.772;2023-02-01T17:53:10;8.30;99.90
5775;DHT22;2913;51.120;6.772;2023-02-01T17:55:41;8.30;99.90
5775;DHT22;2913;51.120;6.772;2023-02-01T17:58:09;8.30;99.90
5775;DHT22;2913;51.120;6.772;2023-02-01T18:00:35;8.20;99.90
5775;DHT22;2913;51.120;6.772;2023-02-01T18:03:03;8.20;99.90
5775;DHT22;2913;51.120;6.772;2023-02-01T18:08:03;8.20;99.90
5775;DHT22;2913;51.120;6.772;2023-02-01T18:10:29;8.20;99.90
5775;DHT22;2913;51.120;6.772;2023-02-01T18:12:55;8.20;99.90
5775;DHT22;2913;51.120;6.772;2023-02-01T18:15:23;8.20;99.90
5775;DHT22;2913;51.120;6.772;2023-02-01T18:17:49;8.30;99.90
5775;DHT22;2913;51.120;6.772;2023-02-01T18:20:16;8.20;99.90
5775;DHT22;2913;51.120;6.772;2023-02-01T18:22:43;8.20;99.90
5775;DHT22;2913;51.120;6.772;2023-02-01T18:27:49;8.20;99.90
5775;DHT22;2913;51.120;6.772;2023-02-01T18:30:23;8.20;99.90
5775;DHT22;2913;51.120;6.772;2023-02-01T18:32:48;8.20;99.90
5775;DHT22;2913;51.120;6.772;2023-02-01T18:35:17;8.20;99.90
5775;DHT22;2913;51.120;6.772;2023-02-01T18:37:43;8.20;99.90
5775;DHT22;2913;51.120;6.772;2023-02-01T18:40:18;8.20;99.90
5775;DHT22;2913;51.120;6.772;2023-02-01T18:42:44;8.20;99.90
5775;DHT22;2913;51.120;6.772;2023-02-01T18:45:29;8.10;99.90
5775;DHT22;2913;51.120;6.772;2023-02-01T18:47:55;8.10;99.90
5775;DHT22;2913;51.120;6.772;2023-02-01T18:50:24;8.10;99.90
5775;DHT22;2913;51.120;6.772;2023-02-01T18:52:54;8.10;99.90
5775;DHT22;2913;51.120;6.772;2023-02-01T18:55:25;8.10;99.90
5775;DHT22;2913;51.120;6.772;2023-02-01T18:57:51;8.10;99.90
5775;DHT22;2913;51.120;6.772;2023-02-01T19:00:20;8.10;99.90
5775;DHT22;2913;51.120;6.772;2023-02-01T19:02:47;8.10;99.90
5775;DHT22;2913;51.120;6.772;2023-02-01T19:05:13;8.10;99.90
5775;DHT22;2913;51.120;6.772;2023-02-01T19:07:43;8.10;99.90
5775;DHT22;2913;51.120;6.772;2023-02-01T19:10:27;8.10;99.90
5775;DHT22;2913;51.120;6.772;2023-02-01T19:12:53;8.10;99.90
5775;DHT22;2913;51.120;6.772;2023-02-01T19:15:20;8.10;99.90
5775;DHT22;2913;51.120;6.772;2023-02-01T19:17:51;8.10;99.90
5775;DHT22;2913;51.120;6.772;2023-02-01T19:20:23;8.10;99.90
5775;DHT22;2913;51.120;6.772;2023-02-01T19:22:52;8.10;99.90
5775;DHT22;2913;51.120;6.772;2023-02-01T19:25:20;8.10;99.90
5775;DHT22;2913;51.120;6.772;2023-02-01T19:27:47;8.10;99.90
5775;DHT22;2913;51.120;6.772;2023-02-01T19:30:14;8.10;99.90
5775;DHT22;2913;51.120;6.772;2023-02-01T19:32:40;8.10;99.90
5775;DHT22;2913;51.120;6.772;2023-02-01T19:35:09;8.10;99.90
5775;DHT22;2913;51.120;6.772;2023-02-01T19:37:42;8.10;99.90
5775;DHT22;2913;51.120;6.772;2023-02-01T19:40:12;8.10;99.90
5775;DHT22;2913;51.120;6.772;2023-02-01T19:42:38;8.20;99.90